sensor_id;sensor_type;location;lat;lon;timestamp;P1;durP1;ratioP1;P2;durP2;ratioP2
14118;SDS011;7138;49.246;9.100;2022-10-03T00:01:27;26.65;;;13.65;;
14118;SDS011;7138;49.246;9.100;2022-10-03T00:04:21;33.65;;;15.45;;
14118;SDS011;7138;49.246;9.100;2022-10-03T00:07:13;33.97;;;15.55;;
14118;SDS011;7138;49.246;9.100;2022-10-03T00:10:00;32.92;;;16.10;;
14118;SDS011;7138;49.246;9.100;2022-10-03T00:12:46;37.85;;;15.63;;
14118;SDS011;7138;49.246;9.100;2022-10-03T00:15:27;33.47;;;16.17;;
14118;SDS011;7138;49.246;9.100;2022-10-03T00:18:06;41.58;;;16.73;;
14118;SDS011;7138;49.246;9.100;2022-10-03T00:20:50;41.45;;;16.08;;
14118;SDS011;7138;49.246;9.100;2022-10-03T00:23:35;35.50;;;16.58;;
14118;SDS011;7138;49.246;9.100;2022-10-03T00:26:15;34.50;;;16.58;;
14118;SDS011;7138;49.246;9.100;2022-10-03T00:28:58;34.40;;;15.82;;
14118;SDS011;7138;49.246;9.100;2022-10-03T00:31:44;37.97;;;17.23;;
14118;SDS011;7138;49.246;9.100;2022-10-03T00:34:28;37.20;;;17.27;;
14118;SDS011;7138;49.246;9.100;2022-10-03T00:37:11;37.28;;;16.88;;
14118;SDS011;7138;49.246;9.100;2022-10-03T00:40:01;41.92;;;17.15;;
14118;SDS011;7138;49.246;9.100;2022-10-03T00:43:24;38.78;;;16.88;;
14118;SDS011;7138;49.246;9.100;2022-10-03T00:46:44;39.15;;;17.65;;
14118;SDS011;7138;49.246;9.100;2022-10-03T00:52:59;37.88;;;18.52;;
14118;SDS011;7138;49.246;9.100;2022-10-03T00:55:43;38.60;;;17.63;;
14118;SDS011;7138;49.246;9.100;2022-10-03T00:58:36;35.30;;;17.00;;
14118;SDS011;7138;49.246;9.100;2022-10-03T01:01:23;40.70;;;17.35;;
14118;SDS011;7138;49.246;9.100;2022-10-03T01:04:03;39.58;;;17.63;;
14118;SDS011;7138;49.246;9.100;2022-10-03T01:06:52;39.80;;;17.80;;
14118;SDS011;7138;49.246;9.100;2022-10-03T01:09:36;36.17;;;16.80;;
14118;SDS011;7138;49.246;9.100;2022-10-03T01:12:31;34.60;;;17.13;;
14118;SDS011;7138;49.246;9.100;2022-10-03T01:15:20;32.35;;;16.20;;
14118;SDS011;7138;49.246;9.100;2022-10-03T01:18:09;31.90;;;14.95;;
14118;SDS011;7138;49.246;9.100;2022-10-03T01:20:52;34.50;;;15.52;;
14118;SDS011;7138;49.246;9.100;2022-10-03T01:26:43;30.92;;;14.10;;
14118;SDS011;7138;49.246;9.100;2022-10-03T01:29:21;31.95;;;14.80;;
14118;SDS011;7138;49.246;9.100;2022-10-03T01:32:20;31.75;;;14.70;;
14118;SDS011;7138;49.246;9.100;2022-10-03T01:34:57;25.88;;;14.65;;
14118;SDS011;7138;49.246;9.100;2022-10-03T01:40:12;29.52;;;14.18;;
14118;SDS011;7138;49.246;9.100;2022-10-03T01:42:54;31.20;;;14.95;;
14118;SDS011;7138;49.246;9.100;2022-10-03T01:45:34;36.17;;;16.52;;
14118;SDS011;7138;49.246;9.100;2022-10-03T01:48:16;45.40;;;16.83;;
14118;SDS011;7138;49.246;9.100;2022-10-03T01:50:53;37.75;;;17.42;;
14118;SDS011;7138;49.246;9.100;2022-10-03T01:53:32;37.90;;;17.27;;
14118;SDS011;7138;49.246;9.100;2022-10-03T01:56:20;50.83;;;18.38;;
14118;SDS011;7138;49.246;9.100;2022-10-03T01:58:57;53.05;;;18.75;;
14118;SDS011;7138;49.246;9.100;2022-10-03T02:01:35;49.70;;;18.42;;
14118;SDS011;7138;49.246;9.100;2022-10-03T02:04:14;46.13;;;17.52;;
14118;SDS011;7138;49.246;9.100;2022-10-03T02:06:58;42.20;;;17.38;;
14118;SDS011;7138;49.246;9.100;2022-10-03T02:09:41;51.17;;;18.63;;
14118;SDS011;7138;49.246;9.100;2022-10-03T02:12:29;43.03;;;18.27;;
14118;SDS011;7138;49.246;9.100;2022-10-03T02:15:07;47.08;;;19.02;;
14118;SDS011;7138;49.246;9.100;2022-10-03T02:17:44;48.28;;;19.08;;
14118;SDS011;7138;49.246;9.100;2022-10-03T02:20:22;41.25;;;17.55;;
14118;SDS011;7138;49.246;9.100;2022-10-03T02:22:58;43.30;;;18.27;;
14118;SDS011;7138;49.246;9.100;2022-10-03T02:25:26;42.90;;;18.90;;
14118;SDS011;7138;49.246;9.100;2022-10-03T02:31:29;47.30;;;19.88;;
14118;SDS011;7138;49.246;9.100;2022-10-03T02:34:42;42.85;;;18.27;;
14118;SDS011;7138;49.246;9.100;2022-10-03T02:37:54;48.43;;;20.23;;
14118;SDS011;7138;49.246;9.100;2022-10-03T02:40:42;47.30;;;18.58;;
14118;SDS011;7138;49.246;9.100;2022-10-03T02:50:59;53.03;;;18.85;;
14118;SDS011;7138;49.246;9.100;2022-10-03T02:57:37;46.17;;;20.30;;
14118;SDS011;7138;49.246;9.100;2022-10-03T03:00:38;48.05;;;20.52;;
14118;SDS011;7138;49.246;9.100;2022-10-03T03:03:54;51.20;;;19.88;;
14118;SDS011;7138;49.246;9.100;2022-10-03T03:06:55;47.42;;;20.02;;
14118;SDS011;7138;49.246;9.100;2022-10-03T03:16:32;43.25;;;18.33;;
14118;SDS011;7138;49.246;9.100;2022-10-03T03:22:25;44.88;;;19.65;;
14118;SDS011;7138;49.246;9.100;2022-10-03T03:25:15;40.35;;;18.67;;
14118;SDS011;7138;49.246;9.100;2022-10-03T03:28:01;42.05;;;17.95;;
14118;SDS011;7138;49.246;9.100;2022-10-03T03:30:47;39.77;;;18.40;;
14118;SDS011;7138;49.246;9.100;2022-10-03T03:33:27;41.90;;;18.77;;
14118;SDS011;7138;49.246;9.100;2022-10-03T03:36:09;43.45;;;17.98;;
14118;SDS011;7138;49.246;9.100;2022-10-03T03:38:48;42.50;;;18.88;;
14118;SDS011;7138;49.246;9.100;2022-10-03T03:41:30;34.17;;;16.27;;
14118;SDS011;7138;49.246;9.100;2022-10-03T03:44:21;35.55;;;16.67;;
14118;SDS011;7138;49.246;9.100;2022-10-03T03:47:13;37.42;;;17.98;;
14118;SDS011;7138;49.246;9.100;2022-10-03T03:50:15;36.72;;;16.48;;
14118;SDS011;7138;49.246;9.100;2022-10-03T03:53:00;41.20;;;16.77;;
14118;SDS011;7138;49.246;9.100;2022-10-03T03:56:04;38.67;;;16.50;;
14118;SDS011;7138;49.246;9.100;2022-10-03T03:58:49;37.40;;;17.00;;
14118;SDS011;7138;49.246;9.100;2022-10-03T04:01:41;34.72;;;16.65;;
14118;SDS011;7138;49.246;9.100;2022-10-03T04:04:37;44.08;;;16.92;;
14118;SDS011;7138;49.246;9.100;2022-10-03T04:07:19;38.40;;;17.50;;
14118;SDS011;7138;49.246;9.100;2022-10-03T04:10:06;42.10;;;17.02;;
14118;SDS011;7138;49.246;9.100;2022-10-03T04:12:52;33.50;;;16.60;;
14118;SDS011;7138;49.246;9.100;2022-10-03T04:15:50;29.75;;;15.68;;
14118;SDS011;7138;49.246;9.100;2022-10-03T04:19:27;35.67;;;15.45;;
14118;SDS011;7138;49.246;9.100;2022-10-03T04:22:13;28.52;;;15.75;;
14118;SDS011;7138;49.246;9.100;2022-10-03T04:24:59;30.58;;;14.77;;
14118;SDS011;7138;49.246;9.100;2022-10-03T04:27:55;33.88;;;14.60;;
14118;SDS011;7138;49.246;9.100;2022-10-03T04:31:04;29.13;;;14.55;;
14118;SDS011;7138;49.246;9.100;2022-10-03T04:33:56;33.40;;;14.00;;
14118;SDS011;7138;49.246;9.100;2022-10-03T04:36:48;35.88;;;14.90;;
14118;SDS011;7138;49.246;9.100;2022-10-03T04:39:44;27.50;;;14.18;;
14118;SDS011;7138;49.246;9.100;2022-10-03T04:42:34;31.23;;;13.73;;
14118;SDS011;7138;49.246;9.100;2022-10-03T04:45:24;29.52;;;13.55;;
14118;SDS011;7138;49.246;9.100;2022-10-03T04:48:04;28.45;;;14.38;;
14118;SDS011;7138;49.246;9.100;2022-10-03T04:50:41;26.45;;;13.80;;
14118;SDS011;7138;49.246;9.100;2022-10-03T04:53:24;35.38;;;14.88;;
14118;SDS011;7138;49.246;9.100;2022-10-03T04:56:10;27.85;;;14.02;;
14118;SDS011;7138;49.246;9.100;2022-10-03T04:58:55;29.48;;;14.52;;
14118;SDS011;7138;49.246;9.100;2022-10-03T05:01:37;36.30;;;14.25;;
14118;SDS011;7138;49.246;9.100;2022-10-03T05:04:14;32.88;;;14.73;;
14118;SDS011;7138;49.246;9.100;2022-10-03T05:06:56;30.90;;;14.98;;
14118;SDS011;7138;49.246;9.100;2022-10-03T05:09:38;37.25;;;15.05;;
14118;SDS011;7138;49.246;9.100;2022-10-03T05:12:14;32.13;;;15.70;;
14118;SDS011;7138;49.246;9.100;2022-10-03T05:14:49;28.63;;;14.68;;
14118;SDS011;7138;49.246;9.100;2022-10-03T05:17:35;34.28;;;14.88;;
14118;SDS011;7138;49.246;9.100;2022-10-03T05:20:19;26.92;;;13.52;;
14118;SDS011;7138;49.246;9.100;2022-10-03T05:23:01;27.70;;;13.88;;
14118;SDS011;7138;49.246;9.100;2022-10-03T05:25:46;29.50;;;14.63;;
14118;SDS011;7138;49.246;9.100;2022-10-03T05:28:28;31.08;;;14.88;;
14118;SDS011;7138;49.246;9.100;2022-10-03T05:33:50;30.73;;;13.02;;
14118;SDS011;7138;49.246;9.100;2022-10-03T05:36:28;31.75;;;14.00;;
14118;SDS011;7138;49.246;9.100;2022-10-03T05:42:10;26.55;;;14.05;;
14118;SDS011;7138;49.246;9.100;2022-10-03T05:45:00;30.20;;;13.38;;
14118;SDS011;7138;49.246;9.100;2022-10-03T05:47:36;26.05;;;13.18;;
14118;SDS011;7138;49.246;9.100;2022-10-03T05:50:21;22.17;;;13.20;;
14118;SDS011;7138;49.246;9.100;2022-10-03T05:53:16;27.42;;;13.43;;
14118;SDS011;7138;49.246;9.100;2022-10-03T05:56:12;21.52;;;11.68;;
14118;SDS011;7138;49.246;9.100;2022-10-03T05:59:10;23.33;;;12.20;;
14118;SDS011;7138;49.246;9.100;2022-10-03T06:05:33;24.63;;;11.85;;
14118;SDS011;7138;49.246;9.100;2022-10-03T06:08:36;24.37;;;12.63;;
14118;SDS011;7138;49.246;9.100;2022-10-03T06:11:45;20.50;;;11.07;;
14118;SDS011;7138;49.246;9.100;2022-10-03T06:14:28;23.30;;;11.27;;
14118;SDS011;7138;49.246;9.100;2022-10-03T06:17:05;20.20;;;10.90;;
14118;SDS011;7138;49.246;9.100;2022-10-03T06:20:21;23.38;;;10.68;;
14118;SDS011;7138;49.246;9.100;2022-10-03T06:23:33;20.25;;;11.10;;
14118;SDS011;7138;49.246;9.100;2022-10-03T06:26:49;19.47;;;10.43;;
14118;SDS011;7138;49.246;9.100;2022-10-03T06:30:11;21.10;;;11.50;;
14118;SDS011;7138;49.246;9.100;2022-10-03T06:36:23;22.88;;;11.00;;
14118;SDS011;7138;49.246;9.100;2022-10-03T06:42:41;21.45;;;10.40;;
14118;SDS011;7138;49.246;9.100;2022-10-03T06:52:08;17.85;;;10.02;;
14118;SDS011;7138;49.246;9.100;2022-10-03T06:55:11;23.73;;;10.07;;
14118;SDS011;7138;49.246;9.100;2022-10-03T06:58:30;16.60;;;10.63;;
14118;SDS011;7138;49.246;9.100;2022-10-03T07:01:27;19.38;;;9.85;;
14118;SDS011;7138;49.246;9.100;2022-10-03T07:04:33;17.20;;;9.30;;
14118;SDS011;7138;49.246;9.100;2022-10-03T07:07:41;18.08;;;10.02;;
14118;SDS011;7138;49.246;9.100;2022-10-03T07:10:51;17.33;;;9.05;;
14118;SDS011;7138;49.246;9.100;2022-10-03T07:13:41;16.20;;;10.18;;
14118;SDS011;7138;49.246;9.100;2022-10-03T07:16:57;19.48;;;12.30;;
14118;SDS011;7138;49.246;9.100;2022-10-03T07:19:53;19.33;;;11.30;;
14118;SDS011;7138;49.246;9.100;2022-10-03T07:23:03;22.77;;;9.98;;
14118;SDS011;7138;49.246;9.100;2022-10-03T07:29:39;21.98;;;10.82;;
14118;SDS011;7138;49.246;9.100;2022-10-03T07:32:30;24.10;;;12.20;;
14118;SDS011;7138;49.246;9.100;2022-10-03T07:35:40;15.60;;;8.02;;
14118;SDS011;7138;49.246;9.100;2022-10-03T07:38:49;17.85;;;8.45;;
14118;SDS011;7138;49.246;9.100;2022-10-03T07:41:56;22.05;;;8.48;;
14118;SDS011;7138;49.246;9.100;2022-10-03T07:45:02;15.50;;;8.13;;
14118;SDS011;7138;49.246;9.100;2022-10-03T07:48:04;21.73;;;8.23;;
14118;SDS011;7138;49.246;9.100;2022-10-03T07:51:12;16.75;;;7.78;;
14118;SDS011;7138;49.246;9.100;2022-10-03T08:00:21;14.50;;;6.97;;
14118;SDS011;7138;49.246;9.100;2022-10-03T08:02:57;18.50;;;7.95;;
14118;SDS011;7138;49.246;9.100;2022-10-03T08:06:17;14.80;;;7.82;;
14118;SDS011;7138;49.246;9.100;2022-10-03T08:08:54;12.13;;;7.13;;
14118;SDS011;7138;49.246;9.100;2022-10-03T08:12:15;19.60;;;8.13;;
14118;SDS011;7138;49.246;9.100;2022-10-03T08:15:12;15.75;;;7.00;;
14118;SDS011;7138;49.246;9.100;2022-10-03T08:21:08;17.85;;;6.53;;
14118;SDS011;7138;49.246;9.100;2022-10-03T08:24:02;16.50;;;6.85;;
14118;SDS011;7138;49.246;9.100;2022-10-03T08:26:56;11.43;;;6.05;;
14118;SDS011;7138;49.246;9.100;2022-10-03T08:32:57;12.52;;;5.35;;
14118;SDS011;7138;49.246;9.100;2022-10-03T08:39:23;12.02;;;4.97;;
14118;SDS011;7138;49.246;9.100;2022-10-03T08:42:38;10.32;;;4.05;;
14118;SDS011;7138;49.246;9.100;2022-10-03T08:45:41;10.70;;;3.90;;
14118;SDS011;7138;49.246;9.100;2022-10-03T08:48:34;9.65;;;3.10;;
14118;SDS011;7138;49.246;9.100;2022-10-03T08:51:44;8.15;;;3.35;;
14118;SDS011;7138;49.246;9.100;2022-10-03T09:01:33;12.73;;;5.00;;
14118;SDS011;7138;49.246;9.100;2022-10-03T09:14:29;12.48;;;4.40;;
14118;SDS011;7138;49.246;9.100;2022-10-03T09:17:32;11.77;;;3.70;;
14118;SDS011;7138;49.246;9.100;2022-10-03T09:24:06;10.57;;;2.67;;
14118;SDS011;7138;49.246;9.100;2022-10-03T09:27:15;11.02;;;3.40;;
14118;SDS011;7138;49.246;9.100;2022-10-03T09:30:24;13.35;;;3.10;;
14118;SDS011;7138;49.246;9.100;2022-10-03T09:40:17;12.07;;;4.30;;
14118;SDS011;7138;49.246;9.100;2022-10-03T09:43:30;10.80;;;3.58;;
14118;SDS011;7138;49.246;9.100;2022-10-03T09:46:33;11.90;;;3.58;;
14118;SDS011;7138;49.246;9.100;2022-10-03T09:50:03;11.57;;;3.25;;
14118;SDS011;7138;49.246;9.100;2022-10-03T09:53:26;8.23;;;3.00;;
14118;SDS011;7138;49.246;9.100;2022-10-03T10:06:16;9.63;;;3.08;;
14118;SDS011;7138;49.246;9.100;2022-10-03T10:09:30;10.02;;;3.10;;
14118;SDS011;7138;49.246;9.100;2022-10-03T10:12:23;10.63;;;2.28;;
14118;SDS011;7138;49.246;9.100;2022-10-03T10:15:50;6.35;;;1.90;;
14118;SDS011;7138;49.246;9.100;2022-10-03T10:18:53;8.30;;;2.25;;
14118;SDS011;7138;49.246;9.100;2022-10-03T10:22:06;7.93;;;2.10;;
14118;SDS011;7138;49.246;9.100;2022-10-03T10:25:05;7.82;;;1.80;;
14118;SDS011;7138;49.246;9.100;2022-10-03T10:28:07;5.47;;;1.67;;
14118;SDS011;7138;49.246;9.100;2022-10-03T10:34:23;5.80;;;1.88;;
14118;SDS011;7138;49.246;9.100;2022-10-03T10:37:55;7.47;;;2.05;;
14118;SDS011;7138;49.246;9.100;2022-10-03T10:41:04;9.52;;;1.92;;
14118;SDS011;7138;49.246;9.100;2022-10-03T10:51:43;8.02;;;1.58;;
14118;SDS011;7138;49.246;9.100;2022-10-03T10:55:15;7.97;;;1.73;;
14118;SDS011;7138;49.246;9.100;2022-10-03T11:05:33;6.90;;;1.60;;
14118;SDS011;7138;49.246;9.100;2022-10-03T11:21:47;8.43;;;2.00;;
14118;SDS011;7138;49.246;9.100;2022-10-03T11:25:18;6.63;;;1.40;;
14118;SDS011;7138;49.246;9.100;2022-10-03T11:35:55;4.30;;;1.20;;
14118;SDS011;7138;49.246;9.100;2022-10-03T11:39:08;5.15;;;1.38;;
14118;SDS011;7138;49.246;9.100;2022-10-03T11:41:52;7.72;;;1.95;;
14118;SDS011;7138;49.246;9.100;2022-10-03T11:44:30;6.35;;;1.60;;
14118;SDS011;7138;49.246;9.100;2022-10-03T11:47:18;7.25;;;1.50;;
14118;SDS011;7138;49.246;9.100;2022-10-03T11:50:22;7.80;;;1.45;;
14118;SDS011;7138;49.246;9.100;2022-10-03T11:55:57;5.70;;;1.77;;
14118;SDS011;7138;49.246;9.100;2022-10-03T11:58:51;6.43;;;1.40;;
14118;SDS011;7138;49.246;9.100;2022-10-03T12:01:51;7.00;;;1.48;;
14118;SDS011;7138;49.246;9.100;2022-10-03T12:04:38;6.25;;;1.50;;
14118;SDS011;7138;49.246;9.100;2022-10-03T12:07:22;7.07;;;1.30;;
14118;SDS011;7138;49.246;9.100;2022-10-03T12:10:32;4.80;;;1.17;;
14118;SDS011;7138;49.246;9.100;2022-10-03T12:13:17;6.80;;;1.38;;
14118;SDS011;7138;49.246;9.100;2022-10-03T12:15:55;4.75;;;1.20;;
14118;SDS011;7138;49.246;9.100;2022-10-03T12:18:25;6.15;;;1.50;;
14118;SDS011;7138;49.246;9.100;2022-10-03T12:21:13;4.43;;;1.10;;
14118;SDS011;7138;49.246;9.100;2022-10-03T12:23:49;5.95;;;1.60;;
14118;SDS011;7138;49.246;9.100;2022-10-03T12:26:32;6.60;;;1.40;;
14118;SDS011;7138;49.246;9.100;2022-10-03T12:29:13;5.97;;;1.55;;
14118;SDS011;7138;49.246;9.100;2022-10-03T12:31:45;6.97;;;1.75;;
14118;SDS011;7138;49.246;9.100;2022-10-03T12:34:34;8.45;;;1.67;;
14118;SDS011;7138;49.246;9.100;2022-10-03T12:37:13;6.97;;;1.33;;
14118;SDS011;7138;49.246;9.100;2022-10-03T12:40:04;6.72;;;1.45;;
14118;SDS011;7138;49.246;9.100;2022-10-03T12:42:43;6.85;;;1.30;;
14118;SDS011;7138;49.246;9.100;2022-10-03T12:45:25;5.03;;;1.30;;
14118;SDS011;7138;49.246;9.100;2022-10-03T12:48:07;5.68;;;1.42;;
14118;SDS011;7138;49.246;9.100;2022-10-03T12:51:03;5.38;;;1.10;;
14118;SDS011;7138;49.246;9.100;2022-10-03T12:53:46;7.63;;;1.30;;
14118;SDS011;7138;49.246;9.100;2022-10-03T12:56:30;6.90;;;1.42;;
14118;SDS011;7138;49.246;9.100;2022-10-03T12:59:13;8.18;;;1.40;;
14118;SDS011;7138;49.246;9.100;2022-10-03T13:02:07;8.32;;;1.70;;
14118;SDS011;7138;49.246;9.100;2022-10-03T13:07:56;4.63;;;1.13;;
14118;SDS011;7138;49.246;9.100;2022-10-03T13:10:32;4.82;;;1.10;;
14118;SDS011;7138;49.246;9.100;2022-10-03T13:13:14;4.55;;;1.30;;
14118;SDS011;7138;49.246;9.100;2022-10-03T13:18:52;6.55;;;1.95;;
14118;SDS011;7138;49.246;9.100;2022-10-03T13:21:40;7.25;;;1.95;;
14118;SDS011;7138;49.246;9.100;2022-10-03T13:24:30;5.82;;;1.35;;
14118;SDS011;7138;49.246;9.100;2022-10-03T13:27:08;5.25;;;1.40;;
14118;SDS011;7138;49.246;9.100;2022-10-03T13:30:12;4.97;;;1.40;;
14118;SDS011;7138;49.246;9.100;2022-10-03T13:32:45;7.60;;;1.50;;
14118;SDS011;7138;49.246;9.100;2022-10-03T13:35:24;7.85;;;1.55;;
14118;SDS011;7138;49.246;9.100;2022-10-03T13:41:07;6.97;;;1.35;;
14118;SDS011;7138;49.246;9.100;2022-10-03T13:43:50;9.38;;;1.77;;
14118;SDS011;7138;49.246;9.100;2022-10-03T13:46:25;4.75;;;1.10;;
14118;SDS011;7138;49.246;9.100;2022-10-03T13:49:03;6.80;;;1.60;;
14118;SDS011;7138;49.246;9.100;2022-10-03T13:51:44;7.70;;;1.40;;
14118;SDS011;7138;49.246;9.100;2022-10-03T13:54:20;5.63;;;1.33;;
14118;SDS011;7138;49.246;9.100;2022-10-03T13:57:14;5.28;;;1.30;;
14118;SDS011;7138;49.246;9.100;2022-10-03T13:59:53;5.22;;;1.30;;
14118;SDS011;7138;49.246;9.100;2022-10-03T14:02:49;6.47;;;1.55;;
14118;SDS011;7138;49.246;9.100;2022-10-03T14:08:37;5.47;;;1.30;;
14118;SDS011;7138;49.246;9.100;2022-10-03T14:11:34;6.97;;;1.33;;
14118;SDS011;7138;49.246;9.100;2022-10-03T14:14:22;3.70;;;1.15;;
14118;SDS011;7138;49.246;9.100;2022-10-03T14:17:22;5.20;;;1.33;;
14118;SDS011;7138;49.246;9.100;2022-10-03T14:20:04;7.50;;;1.45;;
14118;SDS011;7138;49.246;9.100;2022-10-03T14:22:49;9.05;;;1.60;;
14118;SDS011;7138;49.246;9.100;2022-10-03T14:25:32;9.55;;;1.60;;
14118;SDS011;7138;49.246;9.100;2022-10-03T14:28:06;7.15;;;1.83;;
14118;SDS011;7138;49.246;9.100;2022-10-03T14:30:47;5.35;;;1.40;;
14118;SDS011;7138;49.246;9.100;2022-10-03T14:33:27;5.95;;;1.48;;
14118;SDS011;7138;49.246;9.100;2022-10-03T14:36:07;7.47;;;1.60;;
14118;SDS011;7138;49.246;9.100;2022-10-03T14:38:50;6.07;;;1.60;;
14118;SDS011;7138;49.246;9.100;2022-10-03T14:41:43;5.63;;;1.40;;
14118;SDS011;7138;49.246;9.100;2022-10-03T14:44:15;6.80;;;1.27;;
14118;SDS011;7138;49.246;9.100;2022-10-03T14:46:49;4.85;;;1.23;;
14118;SDS011;7138;49.246;9.100;2022-10-03T14:49:22;3.88;;;1.38;;
14118;SDS011;7138;49.246;9.100;2022-10-03T14:51:57;6.28;;;1.50;;
14118;SDS011;7138;49.246;9.100;2022-10-03T14:54:29;5.25;;;1.25;;
14118;SDS011;7138;49.246;9.100;2022-10-03T14:57:01;3.92;;;1.25;;
14118;SDS011;7138;49.246;9.100;2022-10-03T14:59:54;5.05;;;1.75;;
14118;SDS011;7138;49.246;9.100;2022-10-03T15:02:26;6.55;;;1.30;;
14118;SDS011;7138;49.246;9.100;2022-10-03T15:05:00;6.40;;;1.35;;
14118;SDS011;7138;49.246;9.100;2022-10-03T15:07:37;7.00;;;1.90;;
14118;SDS011;7138;49.246;9.100;2022-10-03T15:10:07;6.93;;;1.60;;
14118;SDS011;7138;49.246;9.100;2022-10-03T15:12:39;7.78;;;1.70;;
14118;SDS011;7138;49.246;9.100;2022-10-03T15:15:09;9.88;;;1.63;;
14118;SDS011;7138;49.246;9.100;2022-10-03T15:17:47;9.15;;;1.75;;
14118;SDS011;7138;49.246;9.100;2022-10-03T15:20:18;6.15;;;1.65;;
14118;SDS011;7138;49.246;9.100;2022-10-03T15:22:51;8.15;;;1.75;;
14118;SDS011;7138;49.246;9.100;2022-10-03T15:25:22;7.28;;;2.05;;
14118;SDS011;7138;49.246;9.100;2022-10-03T15:27:57;5.80;;;1.50;;
14118;SDS011;7138;49.246;9.100;2022-10-03T15:30:31;6.80;;;1.50;;
14118;SDS011;7138;49.246;9.100;2022-10-03T15:33:04;5.03;;;1.80;;
14118;SDS011;7138;49.246;9.100;2022-10-03T15:35:40;10.10;;;2.55;;
14118;SDS011;7138;49.246;9.100;2022-10-03T15:38:12;5.22;;;1.60;;
14118;SDS011;7138;49.246;9.100;2022-10-03T15:40:43;8.95;;;1.50;;
14118;SDS011;7138;49.246;9.100;2022-10-03T15:43:23;5.57;;;1.40;;
14118;SDS011;7138;49.246;9.100;2022-10-03T15:45:57;6.63;;;1.58;;
14118;SDS011;7138;49.246;9.100;2022-10-03T15:48:31;5.25;;;1.50;;
14118;SDS011;7138;49.246;9.100;2022-10-03T15:50:58;7.97;;;1.80;;
14118;SDS011;7138;49.246;9.100;2022-10-03T15:53:28;5.05;;;1.40;;
14118;SDS011;7138;49.246;9.100;2022-10-03T15:56:01;7.45;;;1.35;;
14118;SDS011;7138;49.246;9.100;2022-10-03T15:58:37;7.90;;;1.63;;
14118;SDS011;7138;49.246;9.100;2022-10-03T16:01:11;7.43;;;2.17;;
14118;SDS011;7138;49.246;9.100;2022-10-03T16:03:45;7.90;;;1.48;;
14118;SDS011;7138;49.246;9.100;2022-10-03T16:06:16;10.15;;;1.40;;
14118;SDS011;7138;49.246;9.100;2022-10-03T16:08:57;5.30;;;1.63;;
14118;SDS011;7138;49.246;9.100;2022-10-03T16:11:30;5.40;;;1.30;;
14118;SDS011;7138;49.246;9.100;2022-10-03T16:14:12;5.45;;;1.60;;
14118;SDS011;7138;49.246;9.100;2022-10-03T16:16:47;4.93;;;1.25;;
14118;SDS011;7138;49.246;9.100;2022-10-03T16:19:28;5.20;;;1.63;;
14118;SDS011;7138;49.246;9.100;2022-10-03T16:22:05;5.72;;;1.45;;
14118;SDS011;7138;49.246;9.100;2022-10-03T16:27:22;9.27;;;1.92;;
14118;SDS011;7138;49.246;9.100;2022-10-03T16:29:55;7.07;;;1.75;;
14118;SDS011;7138;49.246;9.100;2022-10-03T16:32:41;6.05;;;1.70;;
14118;SDS011;7138;49.246;9.100;2022-10-03T16:35:24;9.23;;;2.13;;
14118;SDS011;7138;49.246;9.100;2022-10-03T16:37:59;5.07;;;1.58;;
14118;SDS011;7138;49.246;9.100;2022-10-03T16:40:29;10.05;;;1.98;;
14118;SDS011;7138;49.246;9.100;2022-10-03T16:42:58;9.43;;;1.52;;
14118;SDS011;7138;49.246;9.100;2022-10-03T16:45:34;4.68;;;1.83;;
14118;SDS011;7138;49.246;9.100;2022-10-03T16:48:12;5.93;;;1.60;;
14118;SDS011;7138;49.246;9.100;2022-10-03T16:51:06;8.50;;;2.00;;
14118;SDS011;7138;49.246;9.100;2022-10-03T16:53:44;5.63;;;1.98;;
14118;SDS011;7138;49.246;9.100;2022-10-03T16:56:14;7.55;;;1.77;;
14118;SDS011;7138;49.246;9.100;2022-10-03T16:58:48;8.80;;;1.83;;
14118;SDS011;7138;49.246;9.100;2022-10-03T17:01:25;7.10;;;1.80;;
14118;SDS011;7138;49.246;9.100;2022-10-03T17:03:58;6.10;;;1.88;;
14118;SDS011;7138;49.246;9.100;2022-10-03T17:06:43;8.52;;;2.00;;
14118;SDS011;7138;49.246;9.100;2022-10-03T17:09:15;9.18;;;1.90;;
14118;SDS011;7138;49.246;9.100;2022-10-03T17:11:51;8.43;;;2.10;;
14118;SDS011;7138;49.246;9.100;2022-10-03T17:14:21;5.30;;;1.83;;
14118;SDS011;7138;49.246;9.100;2022-10-03T17:16:54;7.43;;;1.88;;
14118;SDS011;7138;49.246;9.100;2022-10-03T17:19:30;10.60;;;2.72;;
14118;SDS011;7138;49.246;9.100;2022-10-03T17:22:06;8.40;;;2.20;;
14118;SDS011;7138;49.246;9.100;2022-10-03T17:24:44;7.60;;;3.00;;
14118;SDS011;7138;49.246;9.100;2022-10-03T17:27:18;11.32;;;3.38;;
14118;SDS011;7138;49.246;9.100;2022-10-03T17:29:55;7.57;;;2.88;;
14118;SDS011;7138;49.246;9.100;2022-10-03T17:32:27;7.18;;;2.97;;
14118;SDS011;7138;49.246;9.100;2022-10-03T17:35:03;10.90;;;5.20;;
14118;SDS011;7138;49.246;9.100;2022-10-03T17:37:47;16.23;;;6.20;;
14118;SDS011;7138;49.246;9.100;2022-10-03T17:40:43;7.57;;;3.17;;
14118;SDS011;7138;49.246;9.100;2022-10-03T17:43:33;10.55;;;3.33;;
14118;SDS011;7138;49.246;9.100;2022-10-03T17:46:08;9.02;;;2.80;;
14118;SDS011;7138;49.246;9.100;2022-10-03T17:48:44;7.47;;;3.05;;
14118;SDS011;7138;49.246;9.100;2022-10-03T17:51:29;7.75;;;3.20;;
14118;SDS011;7138;49.246;9.100;2022-10-03T17:54:04;10.07;;;2.70;;
14118;SDS011;7138;49.246;9.100;2022-10-03T17:56:40;11.57;;;2.92;;
14118;SDS011;7138;49.246;9.100;2022-10-03T17:59:14;10.55;;;3.42;;
14118;SDS011;7138;49.246;9.100;2022-10-03T18:01:49;9.00;;;3.70;;
14118;SDS011;7138;49.246;9.100;2022-10-03T18:04:20;9.45;;;3.50;;
14118;SDS011;7138;49.246;9.100;2022-10-03T18:07:00;13.32;;;3.22;;
14118;SDS011;7138;49.246;9.100;2022-10-03T18:09:39;14.10;;;3.58;;
14118;SDS011;7138;49.246;9.100;2022-10-03T18:12:13;9.82;;;3.15;;
14118;SDS011;7138;49.246;9.100;2022-10-03T18:17:47;9.85;;;3.60;;
14118;SDS011;7138;49.246;9.100;2022-10-03T18:20:40;9.00;;;2.70;;
14118;SDS011;7138;49.246;9.100;2022-10-03T18:23:15;7.90;;;2.92;;
14118;SDS011;7138;49.246;9.100;2022-10-03T18:25:51;8.85;;;2.92;;
14118;SDS011;7138;49.246;9.100;2022-10-03T18:28:23;8.45;;;2.47;;
14118;SDS011;7138;49.246;9.100;2022-10-03T18:30:56;11.82;;;3.30;;
14118;SDS011;7138;49.246;9.100;2022-10-03T18:33:27;14.52;;;3.13;;
14118;SDS011;7138;49.246;9.100;2022-10-03T18:35:58;10.25;;;2.80;;
14118;SDS011;7138;49.246;9.100;2022-10-03T18:38:35;10.75;;;3.60;;
14118;SDS011;7138;49.246;9.100;2022-10-03T18:41:06;8.05;;;2.97;;
14118;SDS011;7138;49.246;9.100;2022-10-03T18:43:35;9.02;;;2.70;;
14118;SDS011;7138;49.246;9.100;2022-10-03T18:46:13;9.73;;;2.83;;
14118;SDS011;7138;49.246;9.100;2022-10-03T18:48:47;9.68;;;3.40;;
14118;SDS011;7138;49.246;9.100;2022-10-03T18:51:24;15.20;;;6.10;;
14118;SDS011;7138;49.246;9.100;2022-10-03T18:53:58;12.32;;;4.30;;
14118;SDS011;7138;49.246;9.100;2022-10-03T18:57:00;11.55;;;4.60;;
14118;SDS011;7138;49.246;9.100;2022-10-03T18:59:33;8.40;;;3.38;;
14118;SDS011;7138;49.246;9.100;2022-10-03T19:02:12;7.40;;;3.42;;
14118;SDS011;7138;49.246;9.100;2022-10-03T19:04:48;8.93;;;3.40;;
14118;SDS011;7138;49.246;9.100;2022-10-03T19:07:21;9.63;;;3.17;;
14118;SDS011;7138;49.246;9.100;2022-10-03T19:12:44;8.40;;;3.63;;
14118;SDS011;7138;49.246;9.100;2022-10-03T19:15:17;12.95;;;4.50;;
14118;SDS011;7138;49.246;9.100;2022-10-03T19:18:00;12.05;;;5.72;;
14118;SDS011;7138;49.246;9.100;2022-10-03T19:20:44;10.63;;;4.32;;
14118;SDS011;7138;49.246;9.100;2022-10-03T19:23:16;9.20;;;3.47;;
14118;SDS011;7138;49.246;9.100;2022-10-03T19:25:52;9.43;;;3.78;;
14118;SDS011;7138;49.246;9.100;2022-10-03T19:28:23;9.50;;;4.43;;
14118;SDS011;7138;49.246;9.100;2022-10-03T19:30:56;14.43;;;6.80;;
14118;SDS011;7138;49.246;9.100;2022-10-03T19:33:28;27.23;;;12.38;;
14118;SDS011;7138;49.246;9.100;2022-10-03T19:36:05;21.45;;;11.50;;
14118;SDS011;7138;49.246;9.100;2022-10-03T19:38:41;18.30;;;9.48;;
14118;SDS011;7138;49.246;9.100;2022-10-03T19:41:12;21.33;;;10.75;;